createdAt,value
2019-04-11T00:00:41.672Z,8.52
2019-04-11T00:03:11.258Z,8.71
2019-04-11T00:05:39.754Z,8.63
2019-04-11T00:08:08.183Z,8.37
2019-04-11T00:10:37.496Z,8.38
2019-04-11T00:13:17.214Z,8.26
2019-04-11T00:15:37.068Z,8.05
2019-04-11T00:18:06.191Z,8.31
2019-04-11T00:20:35.960Z,8.13
2019-04-11T00:23:05.925Z,8.46
2019-04-11T00:28:34.643Z,8.18
2019-04-11T00:31:04.225Z,8.20
2019-04-11T00:33:32.664Z,8.27
2019-04-11T00:36:01.012Z,8.42
2019-04-11T00:38:29.978Z,8.22
2019-04-11T00:40:59.623Z,8.35
2019-04-11T00:43:35.290Z,8.31
2019-04-11T00:45:58.254Z,8.11
2019-04-11T00:48:26.628Z,8.30
2019-04-11T00:50:55.963Z,8.11
2019-04-11T00:53:25.613Z,8.25
2019-04-11T00:55:54.070Z,8.26
2019-04-11T00:58:22.516Z,8.14
2019-04-11T01:00:51.400Z,8.12
2019-04-11T01:03:20.140Z,8.00
2019-04-11T01:05:49.840Z,7.92
2019-04-11T01:08:18.344Z,7.86
2019-04-11T01:10:47.690Z,7.85
2019-04-11T01:13:17.489Z,7.95
2019-04-11T01:15:48.896Z,7.87
2019-04-11T01:18:18.041Z,7.62
2019-04-11T01:20:48.061Z,7.68
2019-04-11T01:23:16.593Z,7.70
2019-04-11T01:25:44.944Z,7.70
2019-04-11T01:28:14.292Z,7.50
2019-04-11T01:30:51.319Z,7.62
2019-04-11T01:33:20.682Z,7.66
2019-04-11T01:35:49.904Z,7.41
2019-04-11T01:38:21.290Z,7.31
2019-04-11T01:40:49.796Z,7.24
2019-04-11T01:43:18.175Z,7.11
2019-04-11T01:45:46.654Z,7.15
2019-04-11T01:48:23.712Z,6.99
2019-04-11T01:50:52.101Z,7.02
2019-04-11T01:53:20.480Z,6.82
2019-04-11T01:55:48.898Z,7.01
2019-04-11T01:58:18.374Z,6.96
2019-04-11T02:00:54.738Z,6.91
2019-04-11T02:03:25.455Z,6.89
2019-04-11T02:05:53.921Z,6.59
2019-04-11T02:08:23.014Z,6.72
2019-04-11T02:10:52.851Z,6.69
2019-04-11T02:13:21.448Z,6.62
2019-04-11T02:15:49.777Z,6.75
2019-04-11T02:18:19.298Z,6.77
2019-04-11T02:20:47.758Z,6.82
2019-04-11T02:23:17.746Z,6.71
2019-04-11T02:25:50.717Z,6.64
2019-04-11T02:28:20.306Z,6.58
2019-04-11T02:30:51.260Z,6.39
2019-04-11T02:33:21.764Z,6.34
2019-04-11T02:35:51.854Z,6.33
2019-04-11T02:38:21.502Z,6.35
2019-04-11T02:40:50.525Z,6.49
2019-04-11T02:43:20.219Z,6.43
2019-04-11T02:45:58.233Z,6.33
2019-04-11T02:48:20.428Z,6.56
2019-04-11T02:50:50.347Z,6.08
2019-04-11T02:53:21.330Z,6.21
2019-04-11T02:55:49.855Z,6.03
2019-04-11T02:58:18.694Z,6.00
2019-04-11T03:00:47.341Z,6.22
2019-04-11T03:03:17.406Z,5.99
2019-04-11T03:05:46.823Z,6.03
2019-04-11T03:08:18.904Z,5.82
2019-04-11T03:10:46.194Z,6.16
2019-04-11T03:13:16.567Z,6.28
2019-04-11T03:15:59.389Z,6.06
2019-04-11T03:18:39.219Z,6.32
2019-04-11T03:20:54.886Z,6.24
2019-04-11T03:23:20.656Z,6.47
2019-04-11T03:25:48.923Z,6.50
2019-04-11T03:28:22.660Z,6.75
2019-04-11T03:31:13.155Z,6.74
2019-04-11T03:34:09.474Z,6.86
2019-04-11T03:38:44.596Z,6.85
2019-04-11T03:41:05.881Z,6.52
2019-04-11T03:43:32.987Z,6.86
2019-04-11T03:46:10.855Z,6.92
2019-04-11T03:48:33.236Z,6.75
2019-04-11T03:50:52.525Z,6.65
2019-04-11T03:53:21.468Z,6.85
2019-04-11T03:55:49.580Z,6.75
2019-04-11T03:58:19.680Z,6.75
2019-04-11T04:00:50.491Z,6.78
2019-04-11T04:03:20.066Z,6.57
2019-04-11T04:05:50.610Z,6.54
2019-04-11T04:08:20.335Z,6.50
2019-04-11T04:11:06.244Z,6.63
2019-04-11T04:13:38.951Z,6.48
2019-04-11T04:16:22.154Z,6.36
2019-04-11T04:18:45.814Z,6.32
2019-04-11T04:21:19.514Z,6.34
2019-04-11T04:23:49.607Z,6.50
2019-04-11T04:26:19.168Z,6.36
2019-04-11T04:28:48.323Z,6.29
2019-04-11T04:31:18.490Z,6.31
2019-04-11T04:33:47.654Z,6.24
2019-04-11T04:36:18.233Z,6.24
2019-04-11T04:38:48.889Z,6.13
2019-04-11T04:41:29.808Z,6.12
2019-04-11T04:43:50.699Z,6.27
2019-04-11T04:46:34.717Z,6.31
2019-04-11T04:48:51.340Z,6.16
2019-04-11T04:51:20.516Z,6.13
2019-04-11T04:53:50.242Z,6.15
2019-04-11T04:56:24.443Z,6.32
2019-04-11T04:58:50.676Z,6.29
2019-04-11T05:01:21.731Z,6.24
2019-04-11T05:03:56.243Z,6.22
2019-04-11T05:06:26.201Z,6.29
2019-04-11T05:08:56.071Z,6.40
2019-04-11T05:11:26.264Z,6.14
2019-04-11T05:13:56.472Z,6.42
2019-04-11T05:16:25.159Z,6.19
2019-04-11T05:18:54.648Z,6.33
2019-04-11T05:21:23.373Z,6.26
2019-04-11T05:23:52.158Z,6.41
2019-04-11T05:26:21.537Z,6.47
2019-04-11T05:28:51.021Z,6.59
2019-04-11T05:31:20.632Z,6.60
2019-04-11T05:33:49.734Z,6.47
2019-04-11T05:36:18.672Z,6.58
2019-04-11T05:38:48.541Z,6.65
2019-04-11T05:41:17.710Z,6.62
2019-04-11T05:43:47.370Z,6.63
2019-04-11T05:46:26.066Z,6.58
2019-04-11T05:48:47.563Z,6.55
2019-04-11T05:51:21.198Z,6.71
2019-04-11T05:53:48.585Z,6.66
2019-04-11T05:56:19.189Z,6.64
2019-04-11T05:58:47.913Z,6.73
2019-04-11T06:01:27.859Z,6.72
2019-04-11T06:04:00.309Z,6.66
2019-04-11T06:06:36.849Z,6.84
2019-04-11T06:09:06.307Z,6.71
2019-04-11T06:11:43.181Z,6.92
2019-04-11T06:14:19.466Z,6.76
2019-04-11T06:16:53.841Z,6.91
2019-04-11T06:19:24.938Z,7.03
2019-04-11T06:21:56.090Z,6.98
2019-04-11T06:24:42.522Z,6.70
2019-04-11T06:27:13.851Z,6.87
2019-04-11T06:29:50.723Z,7.05
2019-04-11T06:32:27.778Z,7.10
2019-04-11T06:35:00.329Z,7.07
2019-04-11T06:37:33.986Z,6.93
2019-04-11T06:40:04.341Z,6.85
2019-04-11T06:42:35.043Z,7.08
2019-04-11T06:45:21.774Z,7.01
2019-04-11T06:47:59.025Z,7.03
2019-04-11T06:50:29.147Z,7.12
2019-04-11T06:52:58.213Z,7.11
2019-04-11T06:55:28.941Z,7.08
2019-04-11T06:57:59.125Z,6.97
2019-04-11T07:00:27.712Z,7.30
2019-04-11T07:02:57.791Z,7.26
2019-04-11T07:05:28.954Z,7.39
2019-04-11T07:07:59.914Z,7.42
2019-04-11T07:10:42.517Z,7.40
2019-04-11T07:13:16.378Z,7.45
2019-04-11T07:15:46.524Z,7.57
2019-04-11T07:18:34.195Z,7.66
2019-04-11T07:21:04.174Z,7.71
2019-04-11T07:23:51.423Z,7.80
2019-04-11T07:26:27.465Z,7.74
2019-04-11T07:28:58.563Z,7.79
2019-04-11T07:31:40.142Z,7.66
2019-04-11T07:34:27.327Z,7.74
2019-04-11T07:37:15.020Z,7.72
2019-04-11T07:40:00.985Z,7.87
2019-04-11T07:42:47.229Z,7.87
2019-04-11T07:45:34.355Z,7.73
2019-04-11T07:48:17.492Z,7.96
2019-04-11T07:50:46.544Z,7.92
2019-04-11T07:53:17.445Z,7.98
2019-04-11T07:55:46.642Z,8.09
2019-04-11T07:58:23.950Z,8.00
2019-04-11T08:00:59.690Z,8.10
2019-04-11T08:03:46.980Z,8.09
2019-04-11T08:06:33.632Z,8.16
2019-04-11T08:09:15.660Z,8.10
2019-04-11T08:11:45.655Z,8.05
2019-04-11T08:14:16.181Z,8.10
2019-04-11T08:17:03.775Z,8.21
2019-04-11T08:19:51.144Z,8.26
2019-04-11T08:22:21.262Z,8.21
2019-04-11T08:24:54.018Z,8.19
2019-04-11T08:27:50.065Z,8.43
2019-04-11T08:30:10.861Z,8.38
2019-04-11T08:32:49.938Z,8.41
2019-04-11T08:35:22.468Z,8.48
2019-04-11T08:38:04.658Z,8.55
2019-04-11T08:40:45.075Z,8.52
2019-04-11T08:43:15.258Z,8.48
2019-04-11T08:45:54.177Z,8.56
2019-04-11T08:48:23.194Z,8.62
2019-04-11T08:50:53.230Z,8.59
2019-04-11T08:53:40.622Z,8.68
2019-04-11T08:56:10.499Z,8.72
2019-04-11T08:58:44.767Z,8.78
2019-04-11T09:01:15.926Z,8.78
2019-04-11T09:03:57.353Z,8.65
2019-04-11T09:06:18.826Z,8.67
2019-04-11T09:09:00.676Z,8.75
2019-04-11T09:11:36.590Z,8.76
2019-04-11T09:14:22.108Z,8.91
2019-04-11T09:16:59.344Z,8.90
2019-04-11T09:19:47.248Z,8.95
2019-04-11T09:22:33.220Z,8.99
2019-04-11T09:25:09.232Z,8.89
2019-04-11T09:27:55.701Z,8.87
2019-04-11T09:30:43.050Z,8.94
2019-04-11T09:33:31.037Z,8.98
2019-04-11T09:36:17.303Z,8.95
2019-04-11T09:38:48.605Z,8.86
2019-04-11T09:41:35.014Z,8.95
2019-04-11T09:44:06.496Z,9.06
2019-04-11T09:46:36.674Z,9.10
2019-04-11T09:49:06.792Z,9.13
2019-04-11T09:51:42.712Z,8.95
2019-04-11T09:54:12.763Z,9.13
2019-04-11T09:56:51.823Z,9.11
2019-04-11T09:59:22.984Z,9.22
2019-04-11T10:02:05.958Z,9.28
2019-04-11T10:04:37.396Z,9.32
2019-04-11T10:07:28.274Z,9.29
2019-04-11T10:10:04.654Z,9.33
2019-04-11T10:12:52.064Z,9.39
2019-04-11T10:15:23.247Z,9.41
2019-04-11T10:18:20.247Z,9.46
2019-04-11T10:20:42.580Z,9.43
2019-04-11T10:23:18.802Z,9.48
2019-04-11T10:25:47.661Z,9.54
2019-04-11T10:28:21.689Z,9.54
2019-04-11T10:31:02.123Z,9.60
2019-04-11T10:33:49.026Z,9.64
2019-04-11T10:36:27.387Z,9.62
2019-04-11T10:39:02.770Z,9.67
2019-04-11T10:41:42.074Z,9.67
2019-04-11T10:44:14.000Z,9.69
2019-04-11T10:46:47.548Z,9.74
2019-04-11T10:49:30.390Z,9.82
2019-04-11T10:52:04.384Z,9.84
2019-04-11T10:54:34.495Z,9.64
2019-04-11T10:57:11.919Z,9.73
2019-04-11T10:59:42.901Z,9.85
2019-04-11T11:02:31.510Z,9.87
2019-04-11T11:05:01.208Z,9.79
2019-04-11T11:07:31.415Z,9.75
2019-04-11T11:10:03.919Z,9.79
2019-04-11T11:12:39.939Z,9.76
2019-04-11T11:15:17.710Z,9.75
2019-04-11T11:18:31.925Z,9.74
2019-04-11T11:20:51.792Z,9.77
2019-04-11T11:23:33.716Z,9.84
2019-04-11T11:26:22.742Z,9.83
2019-04-11T11:29:00.504Z,9.76
2019-04-11T11:31:49.633Z,9.88
2019-04-11T11:34:36.744Z,10.02
2019-04-11T11:37:08.975Z,10.06
2019-04-11T11:39:39.485Z,10.11
2019-04-11T11:42:26.156Z,10.15
2019-04-11T11:45:03.038Z,10.16
2019-04-11T11:47:53.145Z,10.20
2019-04-11T11:50:23.850Z,10.24
2019-04-11T11:53:13.201Z,10.21
2019-04-11T11:55:41.595Z,10.37
2019-04-11T11:58:27.937Z,10.28
2019-04-11T12:01:01.212Z,10.40
2019-04-11T12:03:33.065Z,10.44
2019-04-11T12:06:05.161Z,10.39
2019-04-11T12:08:35.484Z,10.48
2019-04-11T12:11:08.109Z,10.49
2019-04-11T12:13:57.921Z,10.54
2019-04-11T12:16:43.836Z,10.48
2019-04-11T12:19:22.608Z,10.55
2019-04-11T12:21:53.754Z,10.58
2019-04-11T12:24:26.569Z,10.60
2019-04-11T12:27:04.406Z,10.63
2019-04-11T12:29:36.858Z,10.68
2019-04-11T12:32:08.298Z,10.74
2019-04-11T12:34:58.001Z,10.75
2019-04-11T12:37:35.801Z,10.79
2019-04-11T12:40:30.134Z,10.88
2019-04-11T12:46:12.081Z,10.90
2019-04-11T12:48:44.228Z,10.96
2019-04-11T12:51:42.716Z,10.91
2019-04-11T12:54:11.798Z,10.94
2019-04-11T12:56:45.093Z,11.02
2019-04-11T12:59:13.479Z,11.08
2019-04-11T13:01:58.282Z,11.09
2019-04-11T13:04:28.296Z,11.06
2019-04-11T13:06:58.350Z,11.15
2019-04-11T13:09:40.514Z,11.29
2019-04-11T13:12:10.570Z,11.26
2019-04-11T13:14:46.444Z,11.20
2019-04-11T13:17:19.282Z,11.25
2019-04-11T13:20:05.645Z,11.28
2019-04-11T13:22:34.158Z,11.37
2019-04-11T13:25:20.808Z,11.27
2019-04-11T13:27:50.798Z,11.39
2019-04-11T13:30:36.757Z,11.35
2019-04-11T13:33:05.339Z,11.39
2019-04-11T13:35:51.316Z,11.46
2019-04-11T13:38:21.311Z,11.50
2019-04-11T13:40:51.327Z,11.49
2019-04-11T13:43:24.251Z,11.58
2019-04-11T13:46:09.351Z,11.51
2019-04-11T13:48:48.309Z,11.51
2019-04-11T13:51:30.734Z,11.63
2019-04-11T13:54:24.656Z,11.54
2019-04-11T13:56:54.735Z,11.58
2019-04-11T13:59:36.599Z,11.66
2019-04-11T14:02:15.384Z,11.69
2019-04-11T14:04:54.954Z,11.73
2019-04-11T14:07:30.574Z,11.66
2019-04-11T14:10:01.699Z,11.66
2019-04-11T14:12:33.467Z,11.64
2019-04-11T14:15:06.027Z,11.73
2019-04-11T14:17:35.051Z,11.78
2019-04-11T14:20:11.871Z,11.75
2019-04-11T14:22:43.696Z,11.90
2019-04-11T14:25:23.034Z,11.98
2019-04-11T14:27:53.127Z,11.88
2019-04-11T14:30:25.853Z,11.96
2019-04-11T14:32:54.526Z,11.89
2019-04-11T14:35:33.180Z,11.91
2019-04-11T14:38:09.311Z,11.92
2019-04-11T14:41:01.652Z,11.94
2019-04-11T14:43:30.121Z,11.99
2019-04-11T14:46:06.919Z,12.07
2019-04-11T14:48:40.709Z,12.07
2019-04-11T14:51:11.207Z,11.94
2019-04-11T14:53:41.285Z,12.09
2019-04-11T14:56:11.272Z,12.13
2019-04-11T14:58:41.292Z,12.19
2019-04-11T15:01:11.278Z,12.18
2019-04-11T15:03:57.390Z,12.20
2019-04-11T15:06:27.450Z,12.34
2019-04-11T15:09:03.464Z,12.39
2019-04-11T15:11:47.142Z,12.38
2019-04-11T15:14:33.256Z,12.37
2019-04-11T15:17:09.229Z,12.43
2019-04-11T15:19:39.446Z,12.54
2019-04-11T15:22:25.579Z,12.54
2019-04-11T15:25:13.604Z,12.57
2019-04-11T15:27:55.294Z,12.67
2019-04-11T15:30:25.655Z,12.70
2019-04-11T15:33:11.775Z,12.82
2019-04-11T15:35:40.115Z,12.91
2019-04-11T15:38:16.167Z,13.05
2019-04-11T15:40:45.451Z,12.99
2019-04-11T15:43:27.272Z,13.08
2019-04-11T15:45:57.331Z,13.15
2019-04-11T15:48:42.130Z,13.07
2019-04-11T15:51:23.975Z,13.00
2019-04-11T15:53:56.490Z,13.10
2019-04-11T15:56:42.475Z,13.17
2019-04-11T15:59:15.373Z,13.04
2019-04-11T16:01:45.428Z,12.93
2019-04-11T16:04:30.531Z,12.70
2019-04-11T16:07:13.368Z,12.66
2019-04-11T16:09:43.904Z,12.65
2019-04-11T16:12:17.164Z,12.80
2019-04-11T16:14:45.652Z,12.76
2019-04-11T16:17:31.626Z,12.86
2019-04-11T16:20:00.983Z,12.83
2019-04-11T16:22:31.118Z,13.10
2019-04-11T16:25:01.497Z,13.46
2019-04-11T16:27:47.834Z,13.66
2019-04-11T16:30:23.741Z,14.19
2019-04-11T16:32:54.655Z,14.35
2019-04-11T16:35:33.162Z,15.63
2019-04-11T16:38:14.384Z,17.36
2019-04-11T16:40:53.431Z,16.56
2019-04-11T16:43:27.416Z,15.64
2019-04-11T16:46:14.964Z,14.87
2019-04-11T16:48:44.674Z,14.64
2019-04-11T16:51:17.394Z,13.96
2019-04-11T16:53:47.624Z,13.50
2019-04-11T16:56:16.117Z,13.22
2019-04-11T16:58:49.337Z,13.06
2019-04-11T17:01:20.760Z,12.96
2019-04-11T17:03:54.918Z,12.67
2019-04-11T17:06:40.974Z,12.73
2019-04-11T17:09:16.481Z,12.59
2019-04-11T17:11:49.492Z,12.52
2019-04-11T17:14:27.656Z,12.43
2019-04-11T17:16:48.023Z,12.46
2019-04-11T17:19:16.968Z,12.39
2019-04-11T17:21:49.031Z,12.38
2019-04-11T17:24:18.081Z,12.35
2019-04-11T17:26:52.400Z,12.18
2019-04-11T17:29:20.313Z,12.09
2019-04-11T17:31:48.958Z,12.09
2019-04-11T17:34:17.307Z,12.04
2019-04-11T17:36:45.686Z,12.10
2019-04-11T17:39:14.035Z,12.09
2019-04-11T17:41:42.723Z,12.03
2019-04-11T17:44:11.513Z,11.97
2019-04-11T17:46:41.915Z,11.84
2019-04-11T17:49:10.549Z,11.83
2019-04-11T17:51:39.393Z,11.75
2019-04-11T17:54:08.319Z,11.67
2019-04-11T17:56:38.130Z,11.54
2019-04-11T17:59:07.302Z,11.42
2019-04-11T18:01:38.070Z,11.31
2019-04-11T18:04:08.855Z,11.19
2019-04-11T18:06:38.114Z,11.14
2019-04-11T18:09:10.383Z,11.12
2019-04-11T18:11:40.460Z,11.02
2019-04-11T18:14:09.458Z,10.92
2019-04-11T18:16:38.474Z,10.93
2019-04-11T18:19:09.767Z,10.72
2019-04-11T18:21:39.202Z,10.79
2019-04-11T18:24:08.827Z,10.71
2019-04-11T18:26:44.046Z,10.64
2019-04-11T18:29:22.940Z,10.58
2019-04-11T18:31:54.685Z,10.46
2019-04-11T18:34:25.713Z,10.35
2019-04-11T18:37:01.612Z,10.38
2019-04-11T18:39:30.968Z,10.35
2019-04-11T18:42:01.334Z,10.44
2019-04-11T18:44:35.772Z,10.40
2019-04-11T18:47:05.197Z,10.28
2019-04-11T18:49:41.239Z,10.20
2019-04-11T18:52:19.273Z,10.15
2019-04-11T18:54:40.449Z,10.01
2019-04-11T18:57:10.820Z,10.01
2019-04-11T18:59:40.100Z,9.91
2019-04-11T19:02:13.325Z,9.70
2019-04-11T19:04:43.586Z,9.65
2019-04-11T19:07:13.864Z,9.69
2019-04-11T19:09:43.874Z,9.67
2019-04-11T19:12:15.812Z,9.69
2019-04-11T19:14:46.106Z,9.58
2019-04-11T19:17:15.810Z,9.50
2019-04-11T19:19:48.856Z,9.21
2019-04-11T19:22:19.704Z,9.21
2019-04-11T19:24:48.294Z,9.33
2019-04-11T19:27:20.566Z,9.37
2019-04-11T19:29:50.853Z,9.30
2019-04-11T19:32:20.488Z,9.33
2019-04-11T19:34:50.216Z,9.28
2019-04-11T19:37:18.568Z,9.04
2019-04-11T19:39:47.016Z,9.00
2019-04-11T19:42:18.706Z,9.06
2019-04-11T19:44:49.364Z,8.91
2019-04-11T19:47:16.067Z,8.96
2019-04-11T19:49:44.647Z,8.88
2019-04-11T19:52:13.061Z,8.91
2019-04-11T19:54:41.497Z,8.90
2019-04-11T19:57:11.074Z,8.83
2019-04-11T19:59:39.452Z,8.58
2019-04-11T20:02:07.929Z,8.62
2019-04-11T20:04:36.298Z,8.68
2019-04-11T20:07:04.705Z,8.61
2019-04-11T20:09:33.085Z,8.47
2019-04-11T20:12:01.424Z,8.53
2019-04-11T20:14:33.862Z,8.64
2019-04-11T20:16:59.858Z,8.62
2019-04-11T20:19:28.210Z,8.57
2019-04-11T20:21:56.669Z,8.38
2019-04-11T20:24:25.002Z,8.49
2019-04-11T20:26:53.373Z,8.52
2019-04-11T20:29:23.565Z,8.48
2019-04-11T20:31:52.636Z,8.28
2019-04-11T20:34:27.495Z,8.01
2019-04-11T20:36:51.982Z,7.98
2019-04-11T20:39:20.817Z,7.97
2019-04-11T20:41:53.500Z,7.87
2019-04-11T20:44:27.146Z,7.83
2019-04-11T20:46:52.853Z,7.82
2019-04-11T20:49:21.194Z,7.86
2019-04-11T20:51:50.145Z,7.87
2019-04-11T20:54:19.011Z,7.88
2019-04-11T20:56:48.309Z,7.61
2019-04-11T20:59:19.959Z,7.66
2019-04-11T21:01:48.793Z,7.73
2019-04-11T21:04:17.680Z,7.77
2019-04-11T21:06:46.493Z,7.77
2019-04-11T21:09:15.208Z,7.82
2019-04-11T21:11:44.470Z,7.78
2019-04-11T21:14:13.054Z,7.58
2019-04-11T21:16:41.762Z,7.57
2019-04-11T21:19:10.174Z,7.54
2019-04-11T21:21:38.688Z,7.45
2019-04-11T21:24:07.487Z,7.44
2019-04-11T21:26:36.737Z,7.52
2019-04-11T21:29:06.117Z,7.33
2019-04-11T21:31:36.466Z,7.36
2019-04-11T21:34:05.925Z,7.22
2019-04-11T21:36:36.024Z,7.47
2019-04-11T21:39:06.877Z,7.50
2019-04-11T21:41:36.867Z,7.47
2019-04-11T21:44:06.460Z,7.38
2019-04-11T21:46:38.113Z,7.43
2019-04-11T21:49:07.057Z,7.40
2019-04-11T21:51:35.415Z,7.35
2019-04-11T21:54:05.266Z,7.39
2019-04-11T21:56:34.873Z,7.36
2019-04-11T21:59:03.783Z,7.18
2019-04-11T22:01:33.319Z,7.28
2019-04-11T22:04:01.841Z,7.31
2019-04-11T22:06:31.142Z,7.29
2019-04-11T22:09:00.087Z,7.22
2019-04-11T22:11:28.513Z,7.25
2019-04-11T22:13:57.024Z,7.16
2019-04-11T22:16:26.435Z,7.15
2019-04-11T22:18:55.099Z,7.20
2019-04-11T22:21:23.739Z,7.21
2019-04-11T22:23:52.971Z,7.28
2019-04-11T22:26:25.127Z,7.35
2019-04-11T22:28:55.194Z,7.34
2019-04-11T22:31:25.025Z,7.11
2019-04-11T22:33:57.632Z,7.23
2019-04-11T22:36:27.889Z,7.10
2019-04-11T22:39:01.010Z,7.15
2019-04-11T22:41:28.905Z,7.20
2019-04-11T22:43:57.285Z,7.10
2019-04-11T22:46:25.765Z,7.07
2019-04-11T22:48:54.146Z,6.95
2019-04-11T22:51:22.930Z,6.93
2019-04-11T22:53:59.908Z,7.10
2019-04-11T22:56:21.374Z,6.98
2019-04-11T22:58:49.756Z,7.04
2019-04-11T23:01:20.292Z,6.99
2019-04-11T23:03:52.413Z,6.91
2019-04-11T23:06:20.752Z,6.88
2019-04-11T23:08:49.572Z,6.98
2019-04-11T23:11:18.052Z,6.84
2019-04-11T23:13:46.404Z,6.68
2019-04-11T23:16:15.048Z,6.54
2019-04-11T23:18:44.211Z,6.63
2019-04-11T23:21:14.875Z,6.71
2019-04-11T23:23:43.311Z,6.84
2019-04-11T23:26:11.717Z,6.68
2019-04-11T23:28:40.106Z,6.74
2019-04-11T23:31:08.453Z,6.74
2019-04-11T23:33:36.869Z,6.54
2019-04-11T23:36:05.317Z,6.29
2019-04-11T23:38:33.658Z,6.49
2019-04-11T23:41:02.100Z,6.14
2019-04-11T23:43:30.443Z,5.82
2019-04-11T23:45:58.819Z,6.04
2019-04-11T23:48:27.162Z,6.29
2019-04-11T23:50:55.876Z,6.42
2019-04-11T23:53:28.324Z,6.48
2019-04-11T23:55:54.432Z,6.57
2019-04-11T23:58:22.778Z,6.59
